createdAt,value
2022-09-05T00:03:01.377Z,85.30
2022-09-05T00:05:46.513Z,85.80
2022-09-05T00:08:46.733Z,85.20
2022-09-05T00:11:44.135Z,84.50
2022-09-05T00:15:15.344Z,86.30
2022-09-05T00:18:59.422Z,85.20
2022-09-05T00:24:20.081Z,87.00
2022-09-05T00:24:35.150Z,86.10
2022-09-05T00:27:20.370Z,87.90
2022-09-05T00:31:06.958Z,86.90
2022-09-05T00:33:41.368Z,87.50
2022-09-05T00:36:28.753Z,88.20
2022-09-05T00:39:09.219Z,86.90
2022-09-05T00:41:38.421Z,88.20
2022-09-05T00:44:07.134Z,87.40
2022-09-05T00:46:41.184Z,87.90
2022-09-05T00:49:29.697Z,88.80
2022-09-05T00:52:10.496Z,90.00
2022-09-05T00:55:12.848Z,89.60
2022-09-05T00:57:59.790Z,90.90
2022-09-05T01:00:51.548Z,89.30
2022-09-05T01:03:51.227Z,90.30
2022-09-05T01:06:37.154Z,90.60
2022-09-05T01:09:21.576Z,90.10
2022-09-05T01:12:25.850Z,90.60
2022-09-05T01:15:01.654Z,91.10
2022-09-05T01:17:49.619Z,90.40
2022-09-05T01:20:46.604Z,91.00
2022-09-05T01:23:40.881Z,91.40
2022-09-05T01:26:25.789Z,90.90
2022-09-05T01:29:19.152Z,91.40
2022-09-05T01:32:15.553Z,91.60
2022-09-05T01:35:41.111Z,92.00
2022-09-05T01:38:34.880Z,91.90
2022-09-05T01:41:29.837Z,91.70
2022-09-05T01:44:09.183Z,92.20
2022-09-05T01:47:04.832Z,91.70
2022-09-05T01:50:01.395Z,92.40
2022-09-05T01:53:03.827Z,92.50
2022-09-05T01:56:24.526Z,92.90
2022-09-05T01:59:38.767Z,92.70
2022-09-05T02:02:54.883Z,92.80
2022-09-05T02:06:01.169Z,93.00
2022-09-05T02:08:51.220Z,92.90
2022-09-05T02:11:35.867Z,92.40
2022-09-05T02:14:41.123Z,92.30
2022-09-05T02:17:50.822Z,92.90
2022-09-05T02:20:52.654Z,92.90
2022-09-05T02:23:40.190Z,93.40
2022-09-05T02:26:20.789Z,92.70
2022-09-05T02:29:02.930Z,92.80
2022-09-05T02:32:01.173Z,93.30
2022-09-05T02:34:44.893Z,94.00
2022-09-05T02:38:51.085Z,93.90
2022-09-05T02:45:12.047Z,94.00
2022-09-05T02:45:24.141Z,93.60
2022-09-05T02:47:08.540Z,94.40
2022-09-05T02:53:57.764Z,93.90
2022-09-05T02:57:34.204Z,94.50
2022-09-05T02:57:41.588Z,93.70
2022-09-05T02:59:42.308Z,94.60
2022-09-05T03:02:30.985Z,93.90
2022-09-05T03:05:14.427Z,94.30
2022-09-05T03:08:26.945Z,94.20
2022-09-05T03:11:33.924Z,94.70
2022-09-05T03:14:45.930Z,94.80
2022-09-05T03:17:44.659Z,95.40
2022-09-05T03:20:46.062Z,95.30
2022-09-05T03:23:50.412Z,94.50
2022-09-05T03:27:01.964Z,95.80
2022-09-05T03:29:35.022Z,95.50
2022-09-05T03:32:52.110Z,94.90
2022-09-05T03:35:50.470Z,95.80
2022-09-05T03:39:08.099Z,95.50
2022-09-05T03:42:32.895Z,95.80
2022-09-05T03:45:36.553Z,95.50
2022-09-05T03:48:42.460Z,96.30
2022-09-05T03:57:13.297Z,95.00
2022-09-05T03:57:14.380Z,96.30
2022-09-05T03:58:55.262Z,96.10
2022-09-05T04:05:00.974Z,96.00
2022-09-05T04:08:25.310Z,96.20
2022-09-05T04:08:28.342Z,95.40
2022-09-05T04:11:02.454Z,96.40
2022-09-05T04:13:40.273Z,96.40
2022-09-05T04:16:29.557Z,96.30
2022-09-05T04:19:16.137Z,96.40
2022-09-05T04:22:14.050Z,96.90
2022-09-05T04:25:13.438Z,96.60
2022-09-05T04:27:55.829Z,97.10
2022-09-05T04:30:52.469Z,96.80
2022-09-05T04:33:36.914Z,96.70
2022-09-05T04:36:28.628Z,97.50
2022-09-05T04:39:17.226Z,97.30
2022-09-05T04:42:24.880Z,97.50
2022-09-05T04:45:08.440Z,97.10
2022-09-05T04:47:47.870Z,97.20
2022-09-05T04:50:24.920Z,97.30
2022-09-05T04:53:23.342Z,97.70
2022-09-05T04:56:02.373Z,97.20
2022-09-05T04:59:29.328Z,98.00
2022-09-05T05:06:09.429Z,98.40
2022-09-05T05:06:14.661Z,97.60
2022-09-05T05:07:46.111Z,97.80
2022-09-05T05:14:58.553Z,97.60
2022-09-05T05:18:00.551Z,97.70
2022-09-05T05:18:08.140Z,97.70
2022-09-05T05:19:28.459Z,97.50
2022-09-05T05:22:03.459Z,97.80
2022-09-05T05:24:43.011Z,98.40
2022-09-05T05:28:02.183Z,97.80
2022-09-05T05:30:41.871Z,98.10
2022-09-05T05:33:26.334Z,98.20
2022-09-05T05:36:01.059Z,98.10
2022-09-05T05:39:09.442Z,98.40
2022-09-05T05:41:53.098Z,97.90
2022-09-05T05:44:28.090Z,99.00
2022-09-05T05:47:26.821Z,98.10
2022-09-05T05:50:36.555Z,98.40
2022-09-05T05:53:43.408Z,98.30
2022-09-05T05:56:56.660Z,99.10
2022-09-05T05:59:43.171Z,98.10
2022-09-05T06:03:25.959Z,98.70
2022-09-05T06:06:17.399Z,98.70
2022-09-05T06:13:22.645Z,98.70
2022-09-05T06:15:00.480Z,98.40
2022-09-05T06:15:53.956Z,98.30
2022-09-05T06:18:37.806Z,98.10
2022-09-05T06:22:08.492Z,98.60
2022-09-05T06:25:21.978Z,97.70
2022-09-05T06:28:26.536Z,97.80
2022-09-05T06:31:29.883Z,97.30
2022-09-05T06:34:33.140Z,97.80
2022-09-05T06:37:26.320Z,96.90
2022-09-05T06:40:29.049Z,96.70
2022-09-05T06:43:43.416Z,96.40
2022-09-05T06:46:55.465Z,96.00
2022-09-05T06:50:24.636Z,95.40
2022-09-05T06:53:49.128Z,95.00
2022-09-05T06:56:54.647Z,94.60
2022-09-05T06:59:40.229Z,94.30
2022-09-05T07:02:19.785Z,93.90
2022-09-05T07:05:37.370Z,93.20
2022-09-05T07:08:48.204Z,93.00
2022-09-05T07:12:09.162Z,92.10
2022-09-05T07:15:08.209Z,91.60
2022-09-05T07:18:10.652Z,91.30
2022-09-05T07:21:15.969Z,90.60
2022-09-05T07:24:11.137Z,89.60
2022-09-05T07:26:54.288Z,88.90
2022-09-05T07:29:53.380Z,88.50
2022-09-05T07:32:35.583Z,87.30
2022-09-05T07:35:06.086Z,87.10
2022-09-05T07:37:44.207Z,85.80
2022-09-05T07:40:25.897Z,83.60
2022-09-05T07:43:25.256Z,83.60
2022-09-05T07:46:11.639Z,82.40
2022-09-05T07:49:02.713Z,80.40
2022-09-05T07:54:56.221Z,81.30
2022-09-05T07:57:10.064Z,81.10
2022-09-05T07:57:51.085Z,80.40
2022-09-05T08:00:29.534Z,80.30
2022-09-05T08:03:13.866Z,80.90
2022-09-05T08:05:50.260Z,77.80
2022-09-05T08:08:38.918Z,77.50
2022-09-05T08:11:24.878Z,76.90
2022-09-05T08:14:38.336Z,76.10
2022-09-05T08:16:49.812Z,75.20
2022-09-05T08:20:08.363Z,74.10
2022-09-05T08:22:53.550Z,72.50
2022-09-05T08:25:56.847Z,71.90
2022-09-05T08:28:57.261Z,70.10
2022-09-05T08:31:55.304Z,70.60
2022-09-05T08:34:55.153Z,68.30
2022-09-05T08:37:26.441Z,67.50
2022-09-05T08:40:10.845Z,67.10
2022-09-05T08:43:56.006Z,66.10
2022-09-05T08:46:42.972Z,63.50
2022-09-05T08:49:40.440Z,63.90
2022-09-05T08:52:21.895Z,62.60
2022-09-05T08:55:10.480Z,63.30
2022-09-05T08:58:30.408Z,60.50
2022-09-05T09:01:28.612Z,59.70
2022-09-05T09:05:02.166Z,59.90
2022-09-05T09:08:08.986Z,58.60
2022-09-05T09:10:55.095Z,58.60
2022-09-05T09:13:40.060Z,57.40
2022-09-05T09:16:50.075Z,58.20
2022-09-05T09:19:48.181Z,56.00
2022-09-05T09:22:48.650Z,55.70
2022-09-05T09:25:36.778Z,55.50
2022-09-05T09:28:51.438Z,54.80
2022-09-05T09:31:43.671Z,53.10
2022-09-05T09:34:25.741Z,52.80
2022-09-05T09:37:50.415Z,51.40
2022-09-05T09:40:41.534Z,50.70
2022-09-05T09:43:28.005Z,50.10
2022-09-05T09:46:17.890Z,50.20
2022-09-05T09:48:48.339Z,49.00
2022-09-05T09:51:43.430Z,49.10
2022-09-05T09:54:59.817Z,49.20
2022-09-05T09:58:00.058Z,48.60
2022-09-05T10:00:51.313Z,47.00
2022-09-05T10:10:33.874Z,46.50
2022-09-05T10:10:44.179Z,46.50
2022-09-05T10:11:00.721Z,45.50
2022-09-05T10:14:36.754Z,46.10
2022-09-05T10:17:35.222Z,44.70
2022-09-05T10:20:28.703Z,44.20
2022-09-05T10:23:29.767Z,44.20
2022-09-05T10:26:38.251Z,43.60
2022-09-05T10:29:43.811Z,44.30
2022-09-05T10:35:12.934Z,42.80
2022-09-05T10:35:24.302Z,42.80
2022-09-05T10:38:11.364Z,43.30
2022-09-05T10:41:09.739Z,41.60
2022-09-05T10:43:39.296Z,41.90
2022-09-05T10:46:52.334Z,41.90
2022-09-05T10:49:37.988Z,40.50
2022-09-05T10:52:19.184Z,40.50
2022-09-05T10:55:21.964Z,40.30
2022-09-05T10:58:01.120Z,39.70
2022-09-05T11:02:23.924Z,39.90
2022-09-05T11:04:37.145Z,39.10
2022-09-05T11:07:43.843Z,40.00
2022-09-05T11:10:37.515Z,39.40
2022-09-05T11:13:47.537Z,39.30
2022-09-05T11:16:49.051Z,38.60
2022-09-05T11:19:30.368Z,38.60
2022-09-05T11:22:22.865Z,38.70
2022-09-05T11:25:40.390Z,38.60
2022-09-05T11:28:26.822Z,38.90
2022-09-05T11:31:03.050Z,37.80
2022-09-05T11:39:52.397Z,37.90
2022-09-05T11:40:08.556Z,37.20
2022-09-05T11:40:40.574Z,37.10
2022-09-05T11:43:37.847Z,37.10
2022-09-05T11:46:26.171Z,36.90
2022-09-05T11:49:41.071Z,36.90
2022-09-05T11:52:40.785Z,36.50
2022-09-05T11:55:43.393Z,36.80
2022-09-05T11:58:45.365Z,36.60
2022-09-05T12:01:51.799Z,36.40
2022-09-05T12:05:49.690Z,36.30
2022-09-05T12:08:14.684Z,35.20
2022-09-05T12:11:43.576Z,36.40
2022-09-05T12:14:54.857Z,35.40
2022-09-05T12:18:00.679Z,35.50
2022-09-05T12:20:53.233Z,35.50
2022-09-05T12:23:58.056Z,35.20
2022-09-05T12:27:38.513Z,35.60
2022-09-05T12:29:34.975Z,35.00
2022-09-05T12:35:24.766Z,34.80
2022-09-05T12:36:13.345Z,34.50
2022-09-05T12:41:33.093Z,34.70
2022-09-05T12:42:11.464Z,33.80
2022-09-05T12:45:29.325Z,33.90
2022-09-05T12:48:13.481Z,33.70
2022-09-05T12:51:04.795Z,33.90
2022-09-05T12:53:48.213Z,33.50
2022-09-05T13:00:12.351Z,33.10
2022-09-05T13:03:01.534Z,34.10
2022-09-05T13:03:08.460Z,33.20
2022-09-05T13:05:23.459Z,33.80
2022-09-05T13:07:59.539Z,33.60
2022-09-05T13:14:59.902Z,34.10
2022-09-05T13:16:24.942Z,33.50
2022-09-05T13:19:18.752Z,33.60
2022-09-05T13:21:52.693Z,33.10
2022-09-05T13:24:38.576Z,33.50
2022-09-05T13:27:24.038Z,33.10
2022-09-05T13:30:14.761Z,33.00
2022-09-05T13:37:59.532Z,33.20
2022-09-05T13:38:13.582Z,33.10
2022-09-05T13:39:12.917Z,32.50
2022-09-05T13:42:03.705Z,32.10
2022-09-05T13:44:40.408Z,31.80
2022-09-05T13:47:55.191Z,31.70
2022-09-05T13:50:38.968Z,30.90
2022-09-05T13:53:36.781Z,31.40
2022-09-05T13:56:30.750Z,31.50
2022-09-05T13:59:11.007Z,31.80
2022-09-05T14:02:27.600Z,32.20
2022-09-05T14:05:20.206Z,31.90
2022-09-05T14:08:24.276Z,31.90
2022-09-05T14:11:44.871Z,32.20
2022-09-05T14:18:00.215Z,32.60
2022-09-05T14:21:00.512Z,32.30
2022-09-05T14:23:40.772Z,32.20
2022-09-05T14:26:21.106Z,32.10
2022-09-05T14:29:09.497Z,32.00
2022-09-05T14:37:39.269Z,31.70
2022-09-05T14:37:53.850Z,31.90
2022-09-05T14:38:41.268Z,32.00
2022-09-05T14:41:27.982Z,32.20
2022-09-05T14:44:27.925Z,31.60
2022-09-05T14:47:35.171Z,30.90
2022-09-05T14:50:43.206Z,30.70
2022-09-05T14:57:59.105Z,30.80
2022-09-05T15:02:47.776Z,30.60
2022-09-05T15:02:51.203Z,30.60
2022-09-05T15:05:18.903Z,30.60
2022-09-05T15:08:00.564Z,30.70
2022-09-05T15:12:20.065Z,30.60
2022-09-05T15:13:28.639Z,30.70
2022-09-05T15:16:15.265Z,31.00
2022-09-05T15:18:50.760Z,30.70
2022-09-05T15:21:37.235Z,30.70
2022-09-05T15:24:31.703Z,30.90
2022-09-05T15:27:02.222Z,31.10
2022-09-05T15:29:35.769Z,30.90
2022-09-05T15:32:23.336Z,31.40
2022-09-05T15:34:56.106Z,31.60
2022-09-05T15:37:36.800Z,31.80
2022-09-05T15:40:23.817Z,32.20
2022-09-05T15:43:03.806Z,32.40
2022-09-05T15:45:38.110Z,32.50
2022-09-05T15:48:26.526Z,32.60
2022-09-05T15:51:23.883Z,32.70
2022-09-05T15:53:52.378Z,32.80
2022-09-05T15:56:25.095Z,32.40
2022-09-05T15:59:00.420Z,32.10
2022-09-05T16:02:00.213Z,33.20
2022-09-05T16:08:54.230Z,33.50
2022-09-05T16:10:40.127Z,33.60
2022-09-05T16:10:45.312Z,33.40
2022-09-05T16:13:17.401Z,34.00
2022-09-05T16:21:09.620Z,34.10
2022-09-05T16:23:19.204Z,35.80
2022-09-05T16:23:24.297Z,34.70
2022-09-05T16:24:58.366Z,34.60
2022-09-05T16:27:50.618Z,34.80
2022-09-05T16:30:32.515Z,35.00
2022-09-05T16:33:21.975Z,35.00
2022-09-05T16:36:07.233Z,35.00
2022-09-05T16:38:57.139Z,35.10
2022-09-05T16:41:51.293Z,35.30
2022-09-05T16:44:37.023Z,35.60
2022-09-05T16:47:23.174Z,35.50
2022-09-05T16:49:59.694Z,35.90
2022-09-05T16:53:28.116Z,35.90
2022-09-05T16:56:17.574Z,36.40
2022-09-05T16:59:02.426Z,36.60
2022-09-05T17:01:45.976Z,36.60
2022-09-05T17:04:41.373Z,36.90
2022-09-05T17:07:55.227Z,37.10
2022-09-05T17:10:34.863Z,37.40
2022-09-05T17:13:03.821Z,37.30
2022-09-05T17:15:51.722Z,37.40
2022-09-05T17:18:26.112Z,37.70
2022-09-05T17:21:00.660Z,37.70
2022-09-05T17:27:29.764Z,37.80
2022-09-05T17:29:18.763Z,38.00
2022-09-05T17:32:51.389Z,39.00
2022-09-05T17:36:07.629Z,38.40
2022-09-05T17:38:49.649Z,38.60
2022-09-05T17:41:43.871Z,38.60
2022-09-05T17:44:38.729Z,38.90
2022-09-05T17:47:20.087Z,38.70
2022-09-05T17:50:28.041Z,38.80
2022-09-05T17:53:26.759Z,39.20
2022-09-05T17:55:50.449Z,39.00
2022-09-05T17:58:50.334Z,39.00
2022-09-05T18:01:26.402Z,39.50
2022-09-05T18:04:08.428Z,39.20
2022-09-05T18:06:59.658Z,39.30
2022-09-05T18:09:40.195Z,39.50
2022-09-05T18:13:12.599Z,39.60
2022-09-05T18:15:22.915Z,39.60
2022-09-05T18:17:53.035Z,41.80
2022-09-05T18:21:12.445Z,43.10
2022-09-05T18:24:04.659Z,45.10
2022-09-05T18:26:43.371Z,45.40
2022-09-05T18:29:58.345Z,47.70
2022-09-05T18:33:56.021Z,49.80
2022-09-05T18:35:54.458Z,50.40
2022-09-05T18:38:49.927Z,47.70
2022-09-05T18:41:28.129Z,49.80
2022-09-05T18:44:13.406Z,50.40
2022-09-05T18:46:52.869Z,50.80
2022-09-05T18:50:25.833Z,50.70
2022-09-05T18:52:33.874Z,51.70
2022-09-05T18:56:09.774Z,51.60
2022-09-05T18:58:31.560Z,53.40
2022-09-05T19:01:30.011Z,53.20
2022-09-05T19:04:03.459Z,54.40
2022-09-05T19:06:45.159Z,53.90
2022-09-05T19:09:27.195Z,54.90
2022-09-05T19:12:16.231Z,55.00
2022-09-05T19:15:06.992Z,56.80
2022-09-05T19:17:41.088Z,56.60
2022-09-05T19:20:33.109Z,57.40
2022-09-05T19:23:13.764Z,57.20
2022-09-05T19:25:47.121Z,60.20
2022-09-05T19:36:51.821Z,59.30
2022-09-05T19:36:53.407Z,60.20
2022-09-05T19:37:02.955Z,60.20
2022-09-05T19:37:30.443Z,59.90
2022-09-05T19:44:18.597Z,59.50
2022-09-05T19:47:27.853Z,59.20
2022-09-05T19:47:38.377Z,59.40
2022-09-05T19:48:35.160Z,58.90
2022-09-05T19:51:17.492Z,59.00
2022-09-05T19:53:54.076Z,60.70
2022-09-05T19:56:45.799Z,59.40
2022-09-05T19:59:38.272Z,60.10
2022-09-05T20:02:19.919Z,61.70
2022-09-05T20:04:57.340Z,60.90
2022-09-05T20:07:31.138Z,60.90
2022-09-05T20:10:03.073Z,60.30
2022-09-05T20:12:38.673Z,61.50
2022-09-05T20:15:34.702Z,60.10
2022-09-05T20:18:26.636Z,63.20
2022-09-05T20:21:28.693Z,61.20
2022-09-05T20:24:00.271Z,61.40
2022-09-05T20:26:34.026Z,60.20
2022-09-05T20:29:09.698Z,60.70
2022-09-05T20:31:37.485Z,61.10
2022-09-05T20:34:24.611Z,61.10
2022-09-05T20:43:10.557Z,61.70
2022-09-05T20:43:18.772Z,62.00
2022-09-05T20:43:29.179Z,63.30
2022-09-05T20:46:51.866Z,62.80
2022-09-05T20:54:10.605Z,62.70
2022-09-05T20:54:21.141Z,62.10
2022-09-05T20:54:39.448Z,62.40
2022-09-05T20:57:29.405Z,62.90
2022-09-05T21:00:12.570Z,64.10
2022-09-05T21:02:54.590Z,64.70
2022-09-05T21:05:34.243Z,65.70
2022-09-05T21:08:19.587Z,68.30
2022-09-05T21:11:02.189Z,68.00
2022-09-05T21:13:52.355Z,67.80
2022-09-05T21:16:30.448Z,67.40
2022-09-05T21:18:58.054Z,70.90
2022-09-05T21:21:36.670Z,69.30
2022-09-05T21:24:16.593Z,71.80
2022-09-05T21:26:48.365Z,71.20
2022-09-05T21:29:26.076Z,72.10
2022-09-05T21:32:10.275Z,72.40
2022-09-05T21:34:49.429Z,74.20
2022-09-05T21:37:18.789Z,73.00
2022-09-05T21:39:59.191Z,73.90
2022-09-05T21:46:50.115Z,73.90
2022-09-05T21:47:46.944Z,74.60
2022-09-05T21:48:10.772Z,76.50
2022-09-05T21:50:45.240Z,75.70
2022-09-05T21:59:05.424Z,76.10
2022-09-05T21:59:33.445Z,76.50
2022-09-05T21:59:46.159Z,77.10
2022-09-05T22:02:16.975Z,77.50
2022-09-05T22:04:44.197Z,76.10
2022-09-05T22:07:32.591Z,76.90
2022-09-05T22:10:06.713Z,78.10
2022-09-05T22:12:35.992Z,78.30
2022-09-05T22:15:27.328Z,78.10
2022-09-05T22:18:16.378Z,77.50
2022-09-05T22:20:53.509Z,79.60
2022-09-05T22:23:40.093Z,80.30
2022-09-05T22:26:07.171Z,80.10
2022-09-05T22:28:46.227Z,80.10
2022-09-05T22:31:13.176Z,81.30
2022-09-05T22:33:40.525Z,81.90
2022-09-05T22:36:08.035Z,80.20
2022-09-05T22:38:38.311Z,80.90
2022-09-05T22:41:06.428Z,82.40
2022-09-05T22:43:36.369Z,83.60
2022-09-05T22:46:04.111Z,84.60
2022-09-05T22:48:31.161Z,83.60
2022-09-05T22:51:00.559Z,86.80
2022-09-05T22:53:27.510Z,89.00
2022-09-05T22:56:01.870Z,90.50
2022-09-05T22:58:29.422Z,91.70
2022-09-05T23:00:56.538Z,91.50
2022-09-05T23:03:23.849Z,91.00
2022-09-05T23:05:53.434Z,91.20
2022-09-05T23:08:20.444Z,92.40
2022-09-05T23:10:47.360Z,94.90
2022-09-05T23:13:14.345Z,95.20
2022-09-05T23:15:41.450Z,95.10
2022-09-05T23:18:08.493Z,96.70
2022-09-05T23:20:36.560Z,96.30
2022-09-05T23:23:06.811Z,96.70
2022-09-05T23:25:35.515Z,98.00
2022-09-05T23:28:09.694Z,97.20
2022-09-05T23:30:37.970Z,97.30
2022-09-05T23:33:10.373Z,97.00
2022-09-05T23:35:38.040Z,97.50
2022-09-05T23:38:10.651Z,97.70
2022-09-05T23:40:38.891Z,98.40
2022-09-05T23:43:06.146Z,97.70
2022-09-05T23:45:35.820Z,98.30
2022-09-05T23:48:03.139Z,98.20
2022-09-05T23:50:30.124Z,97.80
2022-09-05T23:53:01.794Z,98.30
2022-09-05T23:55:29.817Z,98.40
2022-09-05T23:57:58.761Z,98.60
